createdAt,value
2022-12-23T00:00:25.139Z,98.53
2022-12-23T00:02:55.228Z,99.06
2022-12-23T00:05:25.121Z,98.63
2022-12-23T00:07:54.896Z,98.03
2022-12-23T00:10:24.637Z,96.93
2022-12-23T00:13:12.102Z,98.07
2022-12-23T00:15:41.846Z,98.16
2022-12-23T00:18:12.673Z,98.83
2022-12-23T00:20:42.478Z,99.32
2022-12-23T00:23:11.983Z,98.82
2022-12-23T00:25:46.334Z,99.45
2022-12-23T00:28:21.563Z,100.00
2022-12-23T00:31:02.508Z,99.38
2022-12-23T00:33:37.667Z,98.89
2022-12-23T00:36:27.462Z,98.76
2022-12-23T00:39:18.410Z,99.06
2022-12-23T00:42:06.152Z,99.30
2022-12-23T00:44:36.182Z,98.52
2022-12-23T00:47:06.305Z,98.96
2022-12-23T00:49:45.100Z,99.32
2022-12-23T00:52:18.805Z,99.69
2022-12-23T00:54:48.579Z,100.00
2022-12-23T00:57:18.334Z,99.80
2022-12-23T00:59:48.395Z,100.00
2022-12-23T01:02:35.856Z,100.00
2022-12-23T01:05:26.143Z,100.00
2022-12-23T01:07:55.910Z,100.00
2022-12-23T01:10:25.673Z,100.00
2022-12-23T01:12:55.580Z,100.00
2022-12-23T01:15:25.380Z,100.00
2022-12-23T01:17:55.481Z,100.00
2022-12-23T01:20:25.805Z,100.00
2022-12-23T01:22:55.597Z,100.00
2022-12-23T01:25:25.379Z,100.00
2022-12-23T01:27:55.484Z,100.00
2022-12-23T01:30:25.289Z,99.95
2022-12-23T01:32:55.091Z,99.83
2022-12-23T01:35:24.844Z,100.00
2022-12-23T01:37:54.596Z,99.07
2022-12-23T01:40:24.352Z,99.99
2022-12-23T01:42:54.403Z,99.55
2022-12-23T01:45:32.678Z,99.84
2022-12-23T01:48:11.193Z,99.95
2022-12-23T01:50:49.692Z,99.83
2022-12-23T01:53:22.869Z,99.40
2022-12-23T01:56:10.160Z,98.29
2022-12-23T01:58:45.704Z,100.00
2022-12-23T02:01:34.225Z,100.00
2022-12-23T02:04:09.257Z,100.00
2022-12-23T02:07:01.601Z,99.66
2022-12-23T02:09:33.917Z,98.62
2022-12-23T02:12:25.964Z,100.00
2022-12-23T02:15:22.254Z,100.00
2022-12-23T02:18:03.362Z,100.00
2022-12-23T02:21:07.316Z,100.00
2022-12-23T02:23:42.765Z,100.00
2022-12-23T02:26:18.205Z,99.79
2022-12-23T02:29:23.438Z,99.61
2022-12-23T02:31:55.928Z,100.00
2022-12-23T02:34:46.334Z,99.13
2022-12-23T02:37:27.619Z,99.33
2022-12-23T02:40:12.397Z,99.23
2022-12-23T02:42:45.515Z,98.73
2022-12-23T02:45:21.555Z,98.95
2022-12-23T02:47:56.750Z,99.28
2022-12-23T02:50:32.348Z,99.76
2022-12-23T02:53:16.779Z,99.44
2022-12-23T02:55:49.888Z,99.35
2022-12-23T02:58:22.812Z,98.99
2022-12-23T03:00:52.483Z,99.91
2022-12-23T03:03:22.981Z,99.37
2022-12-23T03:05:53.746Z,99.82
2022-12-23T03:08:28.992Z,100.00
2022-12-23T03:11:07.361Z,99.42
2022-12-23T03:13:48.151Z,98.26
2022-12-23T03:16:24.160Z,99.10
2022-12-23T03:19:11.889Z,99.12
2022-12-23T03:21:53.177Z,99.12
2022-12-23T03:24:46.574Z,99.28
2022-12-23T03:27:19.364Z,99.46
2022-12-23T03:29:58.098Z,98.87
2022-12-23T03:32:30.039Z,99.79
2022-12-23T03:35:03.212Z,99.35
2022-12-23T03:37:35.924Z,99.59
2022-12-23T03:40:16.721Z,100.00
2022-12-23T03:42:50.265Z,99.64
2022-12-23T03:45:38.787Z,99.32
2022-12-23T03:48:02.848Z,99.46
2022-12-23T03:50:34.832Z,99.28
2022-12-23T03:53:07.590Z,99.21
2022-12-23T03:55:46.285Z,98.47
2022-12-23T03:58:24.624Z,100.00
2022-12-23T04:00:57.744Z,99.63
2022-12-23T04:03:46.795Z,99.32
2022-12-23T04:06:19.133Z,99.11
2022-12-23T04:08:50.709Z,98.94
2022-12-23T04:11:21.202Z,99.24
2022-12-23T04:13:51.067Z,99.24
2022-12-23T04:16:21.001Z,98.98
2022-12-23T04:18:50.825Z,98.88
2022-12-23T04:21:20.667Z,98.32
2022-12-23T04:23:50.426Z,98.48
2022-12-23T04:26:20.196Z,98.21
2022-12-23T04:28:49.957Z,98.41
2022-12-23T04:31:21.435Z,97.34
2022-12-23T04:33:51.167Z,97.23
2022-12-23T04:36:20.963Z,96.13
2022-12-23T04:38:50.795Z,96.67
2022-12-23T04:41:20.437Z,96.94
2022-12-23T04:43:52.927Z,96.29
2022-12-23T04:46:21.907Z,96.79
2022-12-23T04:48:51.723Z,95.90
2022-12-23T04:51:21.430Z,96.62
2022-12-23T04:53:51.269Z,97.50
2022-12-23T04:56:20.966Z,97.47
2022-12-23T04:58:50.735Z,96.11
2022-12-23T05:01:20.619Z,95.89
2022-12-23T05:03:50.708Z,95.36
2022-12-23T05:06:20.230Z,94.74
2022-12-23T05:08:49.987Z,95.62
2022-12-23T05:11:19.731Z,96.02
2022-12-23T05:13:49.791Z,95.31
2022-12-23T05:16:19.545Z,94.32
2022-12-23T05:18:49.928Z,94.46
2022-12-23T05:21:20.258Z,94.41
2022-12-23T05:23:50.057Z,94.33
2022-12-23T05:26:19.649Z,95.63
2022-12-23T05:28:49.673Z,94.88
2022-12-23T05:31:19.531Z,94.92
2022-12-23T05:33:49.729Z,95.51
2022-12-23T05:36:19.188Z,95.83
2022-12-23T05:38:49.261Z,96.11
2022-12-23T05:41:19.094Z,95.48
2022-12-23T05:43:48.872Z,95.46
2022-12-23T05:46:25.918Z,95.27
2022-12-23T05:48:50.454Z,96.33
2022-12-23T05:51:20.234Z,95.58
2022-12-23T05:53:50.027Z,95.29
2022-12-23T05:56:19.796Z,94.67
2022-12-23T05:58:49.550Z,95.27
2022-12-23T06:01:19.283Z,95.24
2022-12-23T06:03:49.193Z,95.24
2022-12-23T06:06:19.056Z,95.21
2022-12-23T06:08:51.982Z,94.28
2022-12-23T06:11:20.307Z,94.99
2022-12-23T06:13:50.063Z,94.99
2022-12-23T06:16:19.774Z,94.95
2022-12-23T06:18:49.630Z,93.83
2022-12-23T06:21:19.365Z,93.83
2022-12-23T06:23:49.119Z,94.71
2022-12-23T06:26:18.758Z,94.46
2022-12-23T06:28:48.850Z,95.50
2022-12-23T06:31:18.950Z,95.15
2022-12-23T06:33:48.798Z,94.24
2022-12-23T06:36:18.232Z,94.24
2022-12-23T06:38:48.020Z,94.45
2022-12-23T06:41:17.991Z,94.34
2022-12-23T06:43:51.209Z,95.50
2022-12-23T06:46:19.288Z,95.21
2022-12-23T06:48:49.035Z,95.12
2022-12-23T06:51:18.775Z,94.80
2022-12-23T06:53:48.631Z,94.66
2022-12-23T06:56:18.569Z,94.30
2022-12-23T06:58:48.316Z,94.17
2022-12-23T07:01:18.141Z,94.04
2022-12-23T07:03:47.936Z,94.86
2022-12-23T07:06:17.708Z,95.05
2022-12-23T07:08:47.758Z,94.48
2022-12-23T07:11:17.530Z,94.24
2022-12-23T07:13:47.824Z,93.60
2022-12-23T07:16:17.730Z,93.88
2022-12-23T07:18:47.491Z,93.50
2022-12-23T07:21:26.510Z,93.34
2022-12-23T07:23:48.700Z,93.01
2022-12-23T07:26:18.456Z,92.94
2022-12-23T07:28:48.711Z,93.54
2022-12-23T07:31:18.487Z,93.63
2022-12-23T07:33:48.318Z,93.51
2022-12-23T07:36:18.053Z,92.90
2022-12-23T07:38:52.493Z,93.39
2022-12-23T07:41:22.549Z,93.68
2022-12-23T07:43:52.626Z,94.76
2022-12-23T07:46:22.269Z,94.03
2022-12-23T07:48:52.014Z,94.25
2022-12-23T07:51:22.115Z,93.68
2022-12-23T07:53:52.212Z,93.68
2022-12-23T07:56:22.165Z,93.61
2022-12-23T07:58:53.349Z,93.76
2022-12-23T08:01:23.288Z,93.31
2022-12-23T08:03:53.234Z,93.50
2022-12-23T08:06:22.943Z,93.15
2022-12-23T08:08:52.706Z,93.09
2022-12-23T08:11:22.485Z,92.91
2022-12-23T08:13:52.886Z,93.02
2022-12-23T08:16:22.432Z,93.27
2022-12-23T08:18:52.242Z,92.93
2022-12-23T08:21:22.051Z,92.82
2022-12-23T08:23:52.817Z,92.82
2022-12-23T08:26:24.601Z,93.41
2022-12-23T08:28:54.713Z,93.65
2022-12-23T08:31:27.233Z,93.55
2022-12-23T08:33:59.289Z,92.86
2022-12-23T08:36:32.350Z,92.91
2022-12-23T08:39:08.277Z,92.75
2022-12-23T08:41:46.932Z,93.64
2022-12-23T08:44:20.542Z,92.71
2022-12-23T08:46:50.941Z,92.70
2022-12-23T08:49:26.249Z,92.84
2022-12-23T08:51:56.209Z,92.99
2022-12-23T08:54:25.814Z,92.89
2022-12-23T08:56:55.575Z,92.91
2022-12-23T08:59:25.407Z,92.67
2022-12-23T09:01:55.306Z,92.79
2022-12-23T09:04:25.126Z,92.85
2022-12-23T09:06:54.997Z,93.24
2022-12-23T09:09:24.811Z,92.99
2022-12-23T09:11:54.944Z,93.23
2022-12-23T09:14:24.599Z,93.26
2022-12-23T09:16:54.396Z,92.92
2022-12-23T09:19:24.189Z,93.81
2022-12-23T09:21:53.971Z,93.87
2022-12-23T09:24:24.112Z,94.09
2022-12-23T09:26:53.859Z,94.09
2022-12-23T09:29:23.699Z,94.55
2022-12-23T09:31:53.550Z,94.15
2022-12-23T09:34:22.971Z,94.48
2022-12-23T09:36:55.437Z,94.85
2022-12-23T09:39:24.636Z,94.76
2022-12-23T09:42:09.401Z,94.68
2022-12-23T09:44:47.974Z,94.62
2022-12-23T09:47:20.781Z,94.91
2022-12-23T09:49:56.284Z,95.15
2022-12-23T09:52:28.501Z,94.53
2022-12-23T09:54:58.551Z,94.75
2022-12-23T09:57:39.733Z,95.08
2022-12-23T10:00:17.639Z,95.07
2022-12-23T10:03:16.215Z,95.29
2022-12-23T10:06:05.213Z,95.06
2022-12-23T10:08:37.667Z,94.39
2022-12-23T10:11:25.160Z,94.45
2022-12-23T10:13:58.012Z,94.45
2022-12-23T10:16:33.351Z,94.87
2022-12-23T10:19:08.949Z,94.78
2022-12-23T10:21:50.851Z,94.53
2022-12-23T10:24:29.163Z,95.58
2022-12-23T10:27:02.138Z,94.81
2022-12-23T10:29:33.745Z,94.62
2022-12-23T10:32:06.654Z,95.13
2022-12-23T10:35:01.840Z,94.70
2022-12-23T10:37:34.442Z,95.08
2022-12-23T10:40:21.015Z,94.23
2022-12-23T10:43:05.639Z,94.65
2022-12-23T10:45:38.462Z,94.95
2022-12-23T10:48:21.261Z,95.20
2022-12-23T10:51:02.795Z,95.19
2022-12-23T10:53:42.100Z,95.14
2022-12-23T10:56:12.107Z,94.56
2022-12-23T10:58:45.119Z,95.84
2022-12-23T11:01:26.178Z,96.08
2022-12-23T11:04:02.910Z,95.78
2022-12-23T11:06:37.608Z,96.45
2022-12-23T11:09:08.064Z,95.16
2022-12-23T11:12:03.037Z,95.52
2022-12-23T11:14:38.788Z,96.27
2022-12-23T11:17:09.039Z,97.00
2022-12-23T11:19:38.910Z,95.97
2022-12-23T11:22:12.629Z,95.35
2022-12-23T11:24:43.423Z,95.66
2022-12-23T11:27:18.616Z,95.01
2022-12-23T11:29:54.498Z,94.21
2022-12-23T11:32:29.431Z,95.10
2022-12-23T11:34:59.244Z,94.73
2022-12-23T11:37:34.982Z,94.18
2022-12-23T11:40:09.760Z,94.54
2022-12-23T11:42:41.756Z,94.54
2022-12-23T11:45:13.043Z,94.15
2022-12-23T11:47:43.145Z,94.44
2022-12-23T11:50:33.395Z,93.88
2022-12-23T11:53:23.957Z,93.53
2022-12-23T11:56:05.929Z,93.46
2022-12-23T11:58:50.447Z,93.49
2022-12-23T12:01:23.188Z,94.33
2022-12-23T12:03:59.338Z,93.68
2022-12-23T12:06:30.410Z,93.28
2022-12-23T12:09:02.979Z,93.95
2022-12-23T12:11:39.809Z,94.16
2022-12-23T12:14:09.124Z,93.90
2022-12-23T12:16:56.550Z,94.06
2022-12-23T12:19:32.009Z,93.97
2022-12-23T12:22:04.865Z,94.43
2022-12-23T12:24:40.742Z,95.06
2022-12-23T12:27:12.945Z,94.79
2022-12-23T12:29:51.221Z,94.97
2022-12-23T12:32:35.871Z,94.95
2022-12-23T12:35:17.043Z,95.62
2022-12-23T12:37:49.892Z,94.87
2022-12-23T12:40:22.377Z,94.87
2022-12-23T12:42:57.879Z,94.70
2022-12-23T12:45:36.173Z,94.50
2022-12-23T12:48:32.123Z,94.66
2022-12-23T12:51:10.405Z,93.89
2022-12-23T12:53:43.253Z,94.73
2022-12-23T12:56:16.027Z,94.73
2022-12-23T12:58:46.200Z,94.67
2022-12-23T13:01:31.096Z,95.25
2022-12-23T13:04:09.703Z,96.76
2022-12-23T13:06:54.694Z,96.05
2022-12-23T13:09:58.995Z,97.16
2022-12-23T13:12:34.172Z,96.86
2022-12-23T13:15:18.178Z,97.27
2022-12-23T13:18:03.507Z,98.55
2022-12-23T13:20:41.730Z,97.60
2022-12-23T13:23:44.156Z,97.84
2022-12-23T13:26:00.955Z,97.50
2022-12-23T13:28:36.387Z,97.01
2022-12-23T13:31:18.423Z,96.51
2022-12-23T13:33:50.963Z,96.72
2022-12-23T13:36:29.876Z,97.72
2022-12-23T13:39:02.705Z,97.51
2022-12-23T13:41:47.555Z,97.92
2022-12-23T13:44:19.026Z,98.65
2022-12-23T13:47:11.007Z,97.92
2022-12-23T13:49:55.396Z,98.02
2022-12-23T13:52:50.455Z,97.56
2022-12-23T13:55:39.636Z,97.76
2022-12-23T13:58:20.133Z,97.76
2022-12-23T14:01:01.662Z,96.94
2022-12-23T14:03:36.081Z,97.34
2022-12-23T14:06:26.340Z,96.53
2022-12-23T14:08:56.843Z,96.08
2022-12-23T14:11:34.108Z,96.27
2022-12-23T14:14:08.023Z,96.97
2022-12-23T14:16:59.974Z,95.85
2022-12-23T14:19:51.938Z,96.95
2022-12-23T14:22:45.531Z,96.05
2022-12-23T14:25:40.405Z,96.07
2022-12-23T14:28:23.575Z,96.46
2022-12-23T14:30:53.535Z,96.27
2022-12-23T14:33:32.357Z,96.21
2022-12-23T14:36:22.868Z,96.11
2022-12-23T14:39:15.882Z,96.19
2022-12-23T14:41:55.617Z,96.46
2022-12-23T14:44:40.815Z,96.57
2022-12-23T14:47:32.831Z,96.68
2022-12-23T14:50:37.050Z,97.66
2022-12-23T14:53:21.869Z,97.60
2022-12-23T14:55:53.647Z,96.47
2022-12-23T15:01:15.674Z,96.50
2022-12-23T15:03:48.862Z,96.04
2022-12-23T15:06:21.756Z,96.01
2022-12-23T15:08:54.016Z,97.03
2022-12-23T15:11:26.431Z,97.26
2022-12-23T15:13:59.221Z,97.18
2022-12-23T15:16:37.538Z,96.71
2022-12-23T15:19:25.164Z,96.71
2022-12-23T15:22:20.674Z,95.81
2022-12-23T15:24:42.772Z,96.01
2022-12-23T15:27:27.431Z,95.90
2022-12-23T15:29:52.687Z,98.14
2022-12-23T15:32:24.904Z,97.98
2022-12-23T15:35:00.317Z,98.10
2022-12-23T15:37:32.283Z,96.63
2022-12-23T15:40:11.945Z,96.21
2022-12-23T15:42:35.628Z,96.35
2022-12-23T15:45:37.155Z,96.99
2022-12-23T15:48:27.388Z,97.13
2022-12-23T15:51:05.969Z,95.59
2022-12-23T15:53:38.776Z,95.17
2022-12-23T15:56:12.974Z,95.30
2022-12-23T15:58:43.639Z,95.54
2022-12-23T16:01:18.300Z,94.33
2022-12-23T16:03:57.029Z,94.27
2022-12-23T16:06:35.855Z,95.31
2022-12-23T16:09:09.360Z,94.34
2022-12-23T16:12:04.085Z,94.34
2022-12-23T16:14:39.634Z,93.73
2022-12-23T16:17:13.017Z,93.73
2022-12-23T16:19:51.622Z,94.41
2022-12-23T16:22:30.218Z,95.24
2022-12-23T16:25:11.721Z,94.78
2022-12-23T16:27:46.944Z,95.14
2022-12-23T16:30:22.420Z,94.80
2022-12-23T16:32:55.271Z,94.45
2022-12-23T16:35:30.773Z,94.06
2022-12-23T16:38:14.830Z,94.82
2022-12-23T16:40:47.696Z,95.10
2022-12-23T16:43:18.653Z,94.55
2022-12-23T16:45:54.336Z,96.56
2022-12-23T16:48:29.588Z,96.56
2022-12-23T16:51:00.081Z,96.76
2022-12-23T16:53:29.903Z,97.36
2022-12-23T16:56:01.023Z,99.82
2022-12-23T16:58:31.345Z,99.23
2022-12-23T17:01:01.221Z,100.00
2022-12-23T17:03:32.472Z,100.00
2022-12-23T17:06:02.261Z,100.00
2022-12-23T17:08:32.047Z,100.00
2022-12-23T17:11:01.860Z,100.00
2022-12-23T17:13:31.946Z,100.00
2022-12-23T17:16:02.022Z,100.00
2022-12-23T17:18:31.883Z,100.00
2022-12-23T17:21:01.596Z,100.00
2022-12-23T17:23:32.881Z,100.00
2022-12-23T17:26:02.937Z,100.00
2022-12-23T17:28:33.824Z,99.74
2022-12-23T17:31:08.669Z,100.00
2022-12-23T17:33:35.913Z,100.00
2022-12-23T17:36:07.159Z,100.00
2022-12-23T17:38:36.950Z,100.00
2022-12-23T17:41:07.248Z,100.00
2022-12-23T17:43:37.049Z,100.00
2022-12-23T17:46:09.460Z,100.00
2022-12-23T17:48:39.208Z,100.00
2022-12-23T17:51:15.025Z,100.00
2022-12-23T17:53:45.215Z,100.00
2022-12-23T17:56:17.456Z,100.00
2022-12-23T17:58:49.733Z,100.00
2022-12-23T18:01:28.153Z,100.00
2022-12-23T18:03:59.867Z,99.62
2022-12-23T18:06:30.325Z,99.12
2022-12-23T18:09:00.175Z,99.62
2022-12-23T18:11:35.637Z,98.87
2022-12-23T18:14:05.960Z,99.38
2022-12-23T18:16:35.838Z,99.52
2022-12-23T18:19:07.957Z,100.00
2022-12-23T18:21:37.934Z,100.00
2022-12-23T18:24:11.635Z,100.00
2022-12-23T18:26:41.751Z,99.78
2022-12-23T18:29:11.563Z,99.58
2022-12-23T18:31:50.204Z,99.58
2022-12-23T18:34:18.053Z,98.18
2022-12-23T18:36:48.379Z,98.47
2022-12-23T18:39:18.629Z,98.75
2022-12-23T18:41:48.374Z,98.86
2022-12-23T18:44:21.002Z,98.36
2022-12-23T18:46:51.236Z,97.89
2022-12-23T18:49:21.056Z,97.25
2022-12-23T18:51:50.800Z,97.58
2022-12-23T18:54:20.548Z,98.07
2022-12-23T18:56:50.699Z,97.43
2022-12-23T18:59:29.617Z,97.73
2022-12-23T19:01:54.805Z,97.64
2022-12-23T19:04:24.624Z,97.21
2022-12-23T19:06:56.543Z,97.24
2022-12-23T19:09:26.851Z,97.09
2022-12-23T19:11:56.581Z,97.54
2022-12-23T19:14:26.596Z,96.15
2022-12-23T19:16:57.787Z,96.15
2022-12-23T19:19:28.051Z,96.57
2022-12-23T19:21:57.879Z,96.66
2022-12-23T19:24:27.631Z,96.92
2022-12-23T19:26:57.405Z,96.86
2022-12-23T19:29:27.306Z,96.94
2022-12-23T19:31:57.067Z,98.07
2022-12-23T19:34:26.573Z,96.50
2022-12-23T19:36:56.367Z,97.09
2022-12-23T19:39:26.897Z,96.71
2022-12-23T19:41:56.926Z,96.67
2022-12-23T19:44:26.833Z,96.67
2022-12-23T19:46:56.594Z,97.33
2022-12-23T19:49:26.769Z,96.28
2022-12-23T19:51:56.535Z,96.65
2022-12-23T19:54:26.656Z,97.07
2022-12-23T19:56:56.688Z,97.68
2022-12-23T19:59:26.799Z,97.84
2022-12-23T20:01:57.165Z,97.89
2022-12-23T20:04:26.735Z,97.89
2022-12-23T20:06:56.802Z,97.96
2022-12-23T20:09:26.951Z,99.34
2022-12-23T20:11:56.695Z,98.26
2022-12-23T20:14:31.950Z,99.10
2022-12-23T20:16:57.932Z,99.32
2022-12-23T20:19:27.816Z,100.00
2022-12-23T20:21:57.676Z,99.47
2022-12-23T20:24:27.281Z,99.86
2022-12-23T20:26:57.863Z,99.90
2022-12-23T20:29:27.978Z,100.00
2022-12-23T20:31:57.867Z,98.85
2022-12-23T20:34:29.908Z,100.00
2022-12-23T20:36:59.089Z,100.00
2022-12-23T20:39:29.040Z,100.00
2022-12-23T20:41:58.790Z,100.00
2022-12-23T20:44:36.806Z,100.00
2022-12-23T20:46:59.802Z,100.00
2022-12-23T20:49:29.608Z,100.00
2022-12-23T20:51:59.417Z,100.00
2022-12-23T20:54:33.288Z,100.00
2022-12-23T20:57:01.257Z,100.00
2022-12-23T20:59:31.152Z,100.00
2022-12-23T21:02:01.848Z,100.00
2022-12-23T21:04:31.611Z,100.00
2022-12-23T21:07:01.382Z,100.00
2022-12-23T21:09:31.270Z,100.00
2022-12-23T21:12:01.837Z,100.00
2022-12-23T21:14:31.619Z,100.00
2022-12-23T21:17:01.424Z,99.48
2022-12-23T21:19:31.365Z,98.26
2022-12-23T21:22:01.363Z,99.34
2022-12-23T21:24:30.787Z,98.74
2022-12-23T21:27:00.541Z,98.22
2022-12-23T21:29:30.269Z,97.77
2022-12-23T21:32:00.595Z,98.24
2022-12-23T21:34:30.260Z,98.35
2022-12-23T21:37:00.130Z,99.50
2022-12-23T21:39:30.301Z,98.72
2022-12-23T21:42:00.113Z,99.47
2022-12-23T21:44:29.924Z,100.00
2022-12-23T21:46:59.734Z,100.00
2022-12-23T21:49:29.874Z,100.00
2022-12-23T21:51:59.686Z,99.94
2022-12-23T21:54:29.121Z,99.23
2022-12-23T21:56:58.875Z,98.94
2022-12-23T21:59:34.705Z,98.24
2022-12-23T22:01:59.870Z,97.32
2022-12-23T22:04:29.605Z,97.63
2022-12-23T22:06:59.097Z,97.40
2022-12-23T22:09:28.816Z,97.04
2022-12-23T22:11:58.860Z,96.32
2022-12-23T22:14:28.667Z,95.68
2022-12-23T22:16:58.785Z,94.81
2022-12-23T22:19:28.656Z,94.08
2022-12-23T22:21:58.406Z,93.44
2022-12-23T22:24:28.022Z,92.75
2022-12-23T22:26:57.817Z,92.87
2022-12-23T22:29:27.849Z,91.46
2022-12-23T22:31:57.695Z,91.77
2022-12-23T22:34:27.210Z,92.48
2022-12-23T22:36:57.015Z,91.83
2022-12-23T22:39:26.869Z,91.82
2022-12-23T22:41:56.607Z,91.71
2022-12-23T22:44:26.447Z,91.82
2022-12-23T22:46:56.370Z,92.24
2022-12-23T22:49:26.299Z,91.91
2022-12-23T22:51:56.121Z,92.54
2022-12-23T22:54:25.564Z,92.32
2022-12-23T22:56:55.598Z,92.54
2022-12-23T22:59:26.387Z,93.24
2022-12-23T23:01:56.207Z,93.33
2022-12-23T23:04:25.727Z,93.03
2022-12-23T23:06:55.839Z,92.11
2022-12-23T23:09:25.648Z,90.69
2022-12-23T23:11:55.685Z,90.44
2022-12-23T23:14:25.292Z,90.44
2022-12-23T23:16:55.172Z,90.43
2022-12-23T23:19:24.941Z,89.55
2022-12-23T23:21:55.558Z,89.33
2022-12-23T23:26:55.840Z,88.13
2022-12-23T23:29:25.296Z,88.25
2022-12-23T23:31:55.085Z,88.80
2022-12-23T23:34:24.688Z,88.60
2022-12-23T23:36:54.733Z,88.79
2022-12-23T23:39:24.465Z,87.84
2022-12-23T23:41:54.540Z,88.66
2022-12-23T23:44:24.883Z,88.12
2022-12-23T23:46:54.622Z,88.20
2022-12-23T23:49:24.730Z,88.05
2022-12-23T23:51:54.933Z,87.25
2022-12-23T23:54:24.378Z,87.29
2022-12-23T23:56:54.085Z,87.13
2022-12-23T23:59:23.834Z,87.37
